< < Back
Terminal Aerodrome Forecast


Current Version              Previous Versions:   1  2  3  4  5  6  7  8  9  

Terminal Aerodrome Forecast

819
FTUS42 KCAE 262200 AAB
TAFCAE
TAF AMD
KCAE 262209Z 2622/2718 23010KT P6SM SCT040 BKN070
     FM270300 22006KT P6SM VCSH BKN040
     FM270600 23007KT 4SM -SHRA BR SCT008 OVC025
     FM271100 23007KT 3SM -SHRA OVC008
     FM271400 32012G18KT P6SM -RA OVC025=



Latest METAR

378
SAUS80 KWBC 262300
MTRCAE
METAR KCAE 262256Z 21006KT 10SM BKN060 OVC075 24/13 A2979 RMK AO2 SLP085
T02390133


USA.gov is the U.S. government's official web portal to all federal, state and local government web resources and services.